sensor_id;sensor_type;location;lat;lon;timestamp;P1;durP1;ratioP1;P2;durP2;ratioP2
33824;SDS011;20127;48.962;8.342;2023-12-07T00:00:30;16.33;;;9.70;;
33824;SDS011;20127;48.962;8.342;2023-12-07T00:01:44;12.90;;;11.40;;
33824;SDS011;20127;48.962;8.342;2023-12-07T00:02:58;14.20;;;10.90;;
33824;SDS011;20127;48.962;8.342;2023-12-07T00:04:12;14.23;;;10.40;;
33824;SDS011;20127;48.962;8.342;2023-12-07T00:05:27;14.38;;;9.52;;
33824;SDS011;20127;48.962;8.342;2023-12-07T00:06:41;14.80;;;10.73;;
33824;SDS011;20127;48.962;8.342;2023-12-07T00:07:57;14.13;;;12.45;;
33824;SDS011;20127;48.962;8.342;2023-12-07T00:09:10;13.50;;;10.45;;
33824;SDS011;20127;48.962;8.342;2023-12-07T00:10:25;17.35;;;10.88;;
33824;SDS011;20127;48.962;8.342;2023-12-07T00:11:39;18.35;;;11.18;;
33824;SDS011;20127;48.962;8.342;2023-12-07T00:12:54;14.05;;;10.07;;
33824;SDS011;20127;48.962;8.342;2023-12-07T00:14:07;17.48;;;10.40;;
33824;SDS011;20127;48.962;8.342;2023-12-07T00:15:22;11.10;;;9.38;;
33824;SDS011;20127;48.962;8.342;2023-12-07T00:16:36;19.77;;;11.93;;
33824;SDS011;20127;48.962;8.342;2023-12-07T00:17:51;13.15;;;9.85;;
33824;SDS011;20127;48.962;8.342;2023-12-07T00:19:04;23.17;;;10.85;;
33824;SDS011;20127;48.962;8.342;2023-12-07T00:20:19;12.68;;;9.50;;
33824;SDS011;20127;48.962;8.342;2023-12-07T00:21:33;13.27;;;9.45;;
33824;SDS011;20127;48.962;8.342;2023-12-07T00:22:47;17.15;;;10.35;;
33824;SDS011;20127;48.962;8.342;2023-12-07T00:24:03;13.00;;;10.23;;
33824;SDS011;20127;48.962;8.342;2023-12-07T00:25:18;16.75;;;10.45;;
33824;SDS011;20127;48.962;8.342;2023-12-07T00:26:32;16.50;;;11.57;;
33824;SDS011;20127;48.962;8.342;2023-12-07T00:27:46;13.68;;;9.80;;
33824;SDS011;20127;48.962;8.342;2023-12-07T00:29:00;15.98;;;10.02;;
33824;SDS011;20127;48.962;8.342;2023-12-07T00:30:15;17.42;;;9.60;;
33824;SDS011;20127;48.962;8.342;2023-12-07T00:31:29;14.20;;;9.65;;
33824;SDS011;20127;48.962;8.342;2023-12-07T00:32:43;16.20;;;9.63;;
33824;SDS011;20127;48.962;8.342;2023-12-07T00:33:57;15.15;;;10.40;;
33824;SDS011;20127;48.962;8.342;2023-12-07T00:35:12;17.90;;;10.18;;
33824;SDS011;20127;48.962;8.342;2023-12-07T00:36:27;11.88;;;9.90;;
33824;SDS011;20127;48.962;8.342;2023-12-07T00:37:42;19.90;;;12.57;;
33824;SDS011;20127;48.962;8.342;2023-12-07T00:38:55;14.65;;;9.98;;
33824;SDS011;20127;48.962;8.342;2023-12-07T00:40:12;14.30;;;9.18;;
33824;SDS011;20127;48.962;8.342;2023-12-07T00:41:25;12.30;;;9.80;;
33824;SDS011;20127;48.962;8.342;2023-12-07T00:42:40;16.48;;;9.45;;
33824;SDS011;20127;48.962;8.342;2023-12-07T00:43:54;11.25;;;8.45;;
33824;SDS011;20127;48.962;8.342;2023-12-07T00:45:08;12.07;;;9.65;;
33824;SDS011;20127;48.962;8.342;2023-12-07T00:46:24;11.27;;;8.50;;
33824;SDS011;20127;48.962;8.342;2023-12-07T00:47:39;12.23;;;8.50;;
33824;SDS011;20127;48.962;8.342;2023-12-07T00:48:52;13.30;;;8.13;;
33824;SDS011;20127;48.962;8.342;2023-12-07T00:50:08;18.75;;;9.80;;
33824;SDS011;20127;48.962;8.342;2023-12-07T00:51:25;12.20;;;8.93;;
33824;SDS011;20127;48.962;8.342;2023-12-07T00:52:40;13.88;;;9.43;;
33824;SDS011;20127;48.962;8.342;2023-12-07T00:53:54;12.73;;;8.45;;
33824;SDS011;20127;48.962;8.342;2023-12-07T00:55:08;12.30;;;9.48;;
33824;SDS011;20127;48.962;8.342;2023-12-07T00:56:24;11.65;;;8.73;;
33824;SDS011;20127;48.962;8.342;2023-12-07T00:57:38;12.10;;;9.60;;
33824;SDS011;20127;48.962;8.342;2023-12-07T00:58:52;14.68;;;10.23;;
33824;SDS011;20127;48.962;8.342;2023-12-07T01:00:07;10.45;;;8.55;;
33824;SDS011;20127;48.962;8.342;2023-12-07T01:01:22;15.68;;;10.40;;
33824;SDS011;20127;48.962;8.342;2023-12-07T01:02:37;14.05;;;9.35;;
33824;SDS011;20127;48.962;8.342;2023-12-07T01:03:50;19.50;;;10.75;;
33824;SDS011;20127;48.962;8.342;2023-12-07T01:05:05;11.68;;;8.85;;
33824;SDS011;20127;48.962;8.342;2023-12-07T01:06:19;14.60;;;10.35;;
33824;SDS011;20127;48.962;8.342;2023-12-07T01:07:34;12.60;;;8.98;;
33824;SDS011;20127;48.962;8.342;2023-12-07T01:08:48;12.82;;;8.90;;
33824;SDS011;20127;48.962;8.342;2023-12-07T01:10:03;12.25;;;9.93;;
33824;SDS011;20127;48.962;8.342;2023-12-07T01:11:17;12.30;;;8.63;;
33824;SDS011;20127;48.962;8.342;2023-12-07T01:12:33;12.75;;;8.70;;
33824;SDS011;20127;48.962;8.342;2023-12-07T01:13:48;12.07;;;9.52;;
33824;SDS011;20127;48.962;8.342;2023-12-07T01:15:03;12.50;;;9.23;;
33824;SDS011;20127;48.962;8.342;2023-12-07T01:16:18;12.77;;;9.25;;
33824;SDS011;20127;48.962;8.342;2023-12-07T01:17:32;12.73;;;10.90;;
33824;SDS011;20127;48.962;8.342;2023-12-07T01:18:46;14.73;;;9.77;;
33824;SDS011;20127;48.962;8.342;2023-12-07T01:20:01;14.73;;;9.98;;
33824;SDS011;20127;48.962;8.342;2023-12-07T01:21:16;12.55;;;9.30;;
33824;SDS011;20127;48.962;8.342;2023-12-07T01:22:31;17.48;;;9.95;;
33824;SDS011;20127;48.962;8.342;2023-12-07T01:23:45;12.43;;;8.80;;
33824;SDS011;20127;48.962;8.342;2023-12-07T01:24:59;16.88;;;9.05;;
33824;SDS011;20127;48.962;8.342;2023-12-07T01:26:13;15.95;;;8.93;;
33824;SDS011;20127;48.962;8.342;2023-12-07T01:27:28;15.45;;;9.80;;
33824;SDS011;20127;48.962;8.342;2023-12-07T01:28:43;16.20;;;9.82;;
33824;SDS011;20127;48.962;8.342;2023-12-07T01:29:58;13.65;;;8.60;;
33824;SDS011;20127;48.962;8.342;2023-12-07T01:31:11;15.80;;;9.07;;
33824;SDS011;20127;48.962;8.342;2023-12-07T01:32:26;15.57;;;9.63;;
33824;SDS011;20127;48.962;8.342;2023-12-07T01:33:40;13.35;;;10.27;;
33824;SDS011;20127;48.962;8.342;2023-12-07T01:34:55;15.20;;;10.20;;
33824;SDS011;20127;48.962;8.342;2023-12-07T01:36:08;17.13;;;11.85;;
33824;SDS011;20127;48.962;8.342;2023-12-07T01:37:24;18.20;;;10.35;;
33824;SDS011;20127;48.962;8.342;2023-12-07T01:38:38;13.35;;;10.40;;
33824;SDS011;20127;48.962;8.342;2023-12-07T01:39:52;16.95;;;11.02;;
33824;SDS011;20127;48.962;8.342;2023-12-07T01:41:06;16.30;;;10.32;;
33824;SDS011;20127;48.962;8.342;2023-12-07T01:42:21;15.95;;;9.98;;
33824;SDS011;20127;48.962;8.342;2023-12-07T01:43:35;23.15;;;10.95;;
33824;SDS011;20127;48.962;8.342;2023-12-07T01:44:51;15.15;;;10.95;;
33824;SDS011;20127;48.962;8.342;2023-12-07T01:46:05;21.08;;;11.00;;
33824;SDS011;20127;48.962;8.342;2023-12-07T01:47:20;15.70;;;12.38;;
33824;SDS011;20127;48.962;8.342;2023-12-07T01:48:33;15.23;;;10.75;;
33824;SDS011;20127;48.962;8.342;2023-12-07T01:49:48;17.50;;;12.38;;
33824;SDS011;20127;48.962;8.342;2023-12-07T01:51:02;16.52;;;11.20;;
33824;SDS011;20127;48.962;8.342;2023-12-07T01:52:17;14.43;;;11.20;;
33824;SDS011;20127;48.962;8.342;2023-12-07T01:53:33;16.63;;;10.95;;
33824;SDS011;20127;48.962;8.342;2023-12-07T01:54:48;14.30;;;9.77;;
33824;SDS011;20127;48.962;8.342;2023-12-07T01:56:02;12.80;;;9.35;;
33824;SDS011;20127;48.962;8.342;2023-12-07T01:57:17;14.90;;;9.18;;
33824;SDS011;20127;48.962;8.342;2023-12-07T01:58:31;16.88;;;11.20;;
33824;SDS011;20127;48.962;8.342;2023-12-07T01:59:46;14.27;;;9.40;;
33824;SDS011;20127;48.962;8.342;2023-12-07T02:01:01;14.02;;;10.35;;
33824;SDS011;20127;48.962;8.342;2023-12-07T02:02:17;14.55;;;10.40;;
33824;SDS011;20127;48.962;8.342;2023-12-07T02:03:31;14.23;;;9.85;;
33824;SDS011;20127;48.962;8.342;2023-12-07T02:04:46;16.77;;;11.82;;
33824;SDS011;20127;48.962;8.342;2023-12-07T02:06:00;14.52;;;9.75;;
33824;SDS011;20127;48.962;8.342;2023-12-07T02:07:16;16.52;;;10.50;;
33824;SDS011;20127;48.962;8.342;2023-12-07T02:08:30;13.90;;;10.98;;
33824;SDS011;20127;48.962;8.342;2023-12-07T02:09:45;12.50;;;9.00;;
33824;SDS011;20127;48.962;8.342;2023-12-07T02:10:59;16.23;;;9.02;;
33824;SDS011;20127;48.962;8.342;2023-12-07T02:12:15;18.42;;;12.00;;
33824;SDS011;20127;48.962;8.342;2023-12-07T02:13:29;12.93;;;9.02;;
33824;SDS011;20127;48.962;8.342;2023-12-07T02:14:43;21.08;;;11.15;;
33824;SDS011;20127;48.962;8.342;2023-12-07T02:15:57;13.45;;;9.75;;
33824;SDS011;20127;48.962;8.342;2023-12-07T02:17:16;18.45;;;11.48;;
33824;SDS011;20127;48.962;8.342;2023-12-07T02:19:55;16.58;;;9.63;;
33824;SDS011;20127;48.962;8.342;2023-12-07T02:21:16;16.27;;;10.50;;
33824;SDS011;20127;48.962;8.342;2023-12-07T02:22:39;17.48;;;11.50;;
33824;SDS011;20127;48.962;8.342;2023-12-07T02:23:56;14.25;;;10.40;;
33824;SDS011;20127;48.962;8.342;2023-12-07T02:25:13;17.90;;;10.65;;
33824;SDS011;20127;48.962;8.342;2023-12-07T02:26:31;21.77;;;12.60;;
33824;SDS011;20127;48.962;8.342;2023-12-07T02:27:46;21.50;;;11.73;;
33824;SDS011;20127;48.962;8.342;2023-12-07T02:28:59;18.77;;;12.02;;
33824;SDS011;20127;48.962;8.342;2023-12-07T02:30:14;21.17;;;14.27;;
33824;SDS011;20127;48.962;8.342;2023-12-07T02:31:28;17.95;;;12.15;;
33824;SDS011;20127;48.962;8.342;2023-12-07T02:32:44;18.05;;;10.85;;
33824;SDS011;20127;48.962;8.342;2023-12-07T02:33:58;23.50;;;11.90;;
33824;SDS011;20127;48.962;8.342;2023-12-07T02:35:13;15.35;;;10.30;;
33824;SDS011;20127;48.962;8.342;2023-12-07T02:36:28;17.80;;;11.93;;
33824;SDS011;20127;48.962;8.342;2023-12-07T02:37:48;15.30;;;10.80;;
33824;SDS011;20127;48.962;8.342;2023-12-07T02:39:02;21.70;;;12.90;;
33824;SDS011;20127;48.962;8.342;2023-12-07T02:40:20;15.70;;;11.25;;
33824;SDS011;20127;48.962;8.342;2023-12-07T02:41:36;17.48;;;12.25;;
33824;SDS011;20127;48.962;8.342;2023-12-07T02:42:53;15.40;;;10.98;;
33824;SDS011;20127;48.962;8.342;2023-12-07T02:44:08;19.25;;;11.70;;
33824;SDS011;20127;48.962;8.342;2023-12-07T02:45:23;20.83;;;11.93;;
33824;SDS011;20127;48.962;8.342;2023-12-07T02:46:38;24.30;;;13.25;;
33824;SDS011;20127;48.962;8.342;2023-12-07T02:47:53;20.00;;;12.90;;
33824;SDS011;20127;48.962;8.342;2023-12-07T02:49:07;23.42;;;13.82;;
33824;SDS011;20127;48.962;8.342;2023-12-07T02:50:22;15.70;;;10.80;;
33824;SDS011;20127;48.962;8.342;2023-12-07T02:51:36;16.25;;;12.00;;
33824;SDS011;20127;48.962;8.342;2023-12-07T02:52:50;16.75;;;11.70;;
33824;SDS011;20127;48.962;8.342;2023-12-07T02:54:04;17.73;;;14.10;;
33824;SDS011;20127;48.962;8.342;2023-12-07T02:55:19;19.52;;;12.30;;
33824;SDS011;20127;48.962;8.342;2023-12-07T02:56:33;20.77;;;11.77;;
33824;SDS011;20127;48.962;8.342;2023-12-07T02:57:49;18.35;;;12.98;;
33824;SDS011;20127;48.962;8.342;2023-12-07T02:59:04;18.77;;;12.20;;
33824;SDS011;20127;48.962;8.342;2023-12-07T03:00:19;23.08;;;12.73;;
33824;SDS011;20127;48.962;8.342;2023-12-07T03:01:34;19.83;;;10.85;;
33824;SDS011;20127;48.962;8.342;2023-12-07T03:02:49;22.38;;;12.65;;
33824;SDS011;20127;48.962;8.342;2023-12-07T03:04:04;19.13;;;13.18;;
33824;SDS011;20127;48.962;8.342;2023-12-07T03:05:18;17.55;;;12.98;;
33824;SDS011;20127;48.962;8.342;2023-12-07T03:06:33;18.42;;;11.35;;
33824;SDS011;20127;48.962;8.342;2023-12-07T03:07:47;24.60;;;13.77;;
33824;SDS011;20127;48.962;8.342;2023-12-07T03:09:01;21.63;;;11.30;;
33824;SDS011;20127;48.962;8.342;2023-12-07T03:10:17;19.05;;;10.75;;
33824;SDS011;20127;48.962;8.342;2023-12-07T03:11:30;22.58;;;12.63;;
33824;SDS011;20127;48.962;8.342;2023-12-07T03:12:45;18.65;;;11.85;;
33824;SDS011;20127;48.962;8.342;2023-12-07T03:14:00;22.35;;;13.82;;
33824;SDS011;20127;48.962;8.342;2023-12-07T03:15:15;21.23;;;13.18;;
33824;SDS011;20127;48.962;8.342;2023-12-07T03:16:28;21.85;;;12.93;;
33824;SDS011;20127;48.962;8.342;2023-12-07T03:17:43;19.08;;;12.75;;
33824;SDS011;20127;48.962;8.342;2023-12-07T03:18:57;21.25;;;11.90;;
33824;SDS011;20127;48.962;8.342;2023-12-07T03:20:12;19.67;;;12.30;;
33824;SDS011;20127;48.962;8.342;2023-12-07T03:21:26;27.52;;;13.68;;
33824;SDS011;20127;48.962;8.342;2023-12-07T03:22:41;22.50;;;11.25;;
33824;SDS011;20127;48.962;8.342;2023-12-07T03:23:55;19.90;;;12.48;;
33824;SDS011;20127;48.962;8.342;2023-12-07T03:25:10;18.02;;;12.30;;
33824;SDS011;20127;48.962;8.342;2023-12-07T03:26:24;23.27;;;13.10;;
33824;SDS011;20127;48.962;8.342;2023-12-07T03:27:39;17.08;;;12.23;;
33824;SDS011;20127;48.962;8.342;2023-12-07T03:28:52;21.73;;;12.18;;
33824;SDS011;20127;48.962;8.342;2023-12-07T03:30:09;20.73;;;11.80;;
33824;SDS011;20127;48.962;8.342;2023-12-07T03:31:23;20.75;;;12.95;;
33824;SDS011;20127;48.962;8.342;2023-12-07T03:32:38;27.70;;;14.45;;
33824;SDS011;20127;48.962;8.342;2023-12-07T03:33:52;18.33;;;13.50;;
33824;SDS011;20127;48.962;8.342;2023-12-07T03:35:07;21.80;;;13.40;;
33824;SDS011;20127;48.962;8.342;2023-12-07T03:36:20;23.10;;;13.65;;
33824;SDS011;20127;48.962;8.342;2023-12-07T03:37:35;24.38;;;15.23;;
33824;SDS011;20127;48.962;8.342;2023-12-07T03:38:49;21.45;;;12.18;;
33824;SDS011;20127;48.962;8.342;2023-12-07T03:40:05;26.15;;;13.95;;
33824;SDS011;20127;48.962;8.342;2023-12-07T03:41:19;22.25;;;13.68;;
33824;SDS011;20127;48.962;8.342;2023-12-07T03:42:34;19.33;;;11.70;;
33824;SDS011;20127;48.962;8.342;2023-12-07T03:43:47;22.73;;;13.15;;
33824;SDS011;20127;48.962;8.342;2023-12-07T03:45:02;21.85;;;11.90;;
33824;SDS011;20127;48.962;8.342;2023-12-07T03:46:18;23.17;;;12.32;;
33824;SDS011;20127;48.962;8.342;2023-12-07T03:47:33;25.33;;;13.00;;
33824;SDS011;20127;48.962;8.342;2023-12-07T03:48:46;29.05;;;14.13;;
33824;SDS011;20127;48.962;8.342;2023-12-07T03:50:01;29.23;;;14.90;;
33824;SDS011;20127;48.962;8.342;2023-12-07T03:51:15;31.55;;;15.32;;
33824;SDS011;20127;48.962;8.342;2023-12-07T03:52:30;18.77;;;13.77;;
33824;SDS011;20127;48.962;8.342;2023-12-07T03:53:43;24.08;;;13.80;;
33824;SDS011;20127;48.962;8.342;2023-12-07T03:54:58;24.50;;;13.90;;
33824;SDS011;20127;48.962;8.342;2023-12-07T03:56:21;18.77;;;12.43;;
33824;SDS011;20127;48.962;8.342;2023-12-07T03:57:37;20.83;;;13.57;;
33824;SDS011;20127;48.962;8.342;2023-12-07T03:58:51;22.05;;;12.80;;
33824;SDS011;20127;48.962;8.342;2023-12-07T04:00:05;26.08;;;12.00;;
33824;SDS011;20127;48.962;8.342;2023-12-07T04:01:23;19.48;;;14.43;;
33824;SDS011;20127;48.962;8.342;2023-12-07T04:02:37;21.17;;;12.35;;
33824;SDS011;20127;48.962;8.342;2023-12-07T04:03:52;22.75;;;12.68;;
33824;SDS011;20127;48.962;8.342;2023-12-07T04:05:07;21.67;;;11.68;;
33824;SDS011;20127;48.962;8.342;2023-12-07T04:06:22;22.70;;;11.20;;
33824;SDS011;20127;48.962;8.342;2023-12-07T04:07:37;20.55;;;12.20;;
33824;SDS011;20127;48.962;8.342;2023-12-07T04:08:51;17.48;;;10.98;;
33824;SDS011;20127;48.962;8.342;2023-12-07T04:10:06;22.65;;;12.55;;
33824;SDS011;20127;48.962;8.342;2023-12-07T04:11:21;19.45;;;12.05;;
33824;SDS011;20127;48.962;8.342;2023-12-07T04:12:35;22.60;;;12.15;;
33824;SDS011;20127;48.962;8.342;2023-12-07T04:13:50;18.15;;;10.52;;
33824;SDS011;20127;48.962;8.342;2023-12-07T04:15:04;22.88;;;11.90;;
33824;SDS011;20127;48.962;8.342;2023-12-07T04:16:19;25.05;;;13.38;;
33824;SDS011;20127;48.962;8.342;2023-12-07T04:17:34;25.40;;;12.82;;
33824;SDS011;20127;48.962;8.342;2023-12-07T04:18:49;23.13;;;12.18;;
33824;SDS011;20127;48.962;8.342;2023-12-07T04:20:03;24.50;;;12.20;;
33824;SDS011;20127;48.962;8.342;2023-12-07T04:21:19;25.05;;;13.38;;
33824;SDS011;20127;48.962;8.342;2023-12-07T04:22:32;22.58;;;11.27;;
33824;SDS011;20127;48.962;8.342;2023-12-07T04:23:47;23.58;;;12.73;;
33824;SDS011;20127;48.962;8.342;2023-12-07T04:25:01;21.60;;;11.82;;
33824;SDS011;20127;48.962;8.342;2023-12-07T04:26:16;23.98;;;12.13;;
33824;SDS011;20127;48.962;8.342;2023-12-07T04:27:29;25.63;;;12.77;;
33824;SDS011;20127;48.962;8.342;2023-12-07T04:28:44;21.67;;;11.98;;
33824;SDS011;20127;48.962;8.342;2023-12-07T04:29:58;24.77;;;12.02;;
33824;SDS011;20127;48.962;8.342;2023-12-07T04:31:13;24.48;;;14.50;;
33824;SDS011;20127;48.962;8.342;2023-12-07T04:32:27;22.48;;;12.50;;
33824;SDS011;20127;48.962;8.342;2023-12-07T04:33:43;24.75;;;13.23;;
33824;SDS011;20127;48.962;8.342;2023-12-07T04:34:57;16.48;;;11.13;;
33824;SDS011;20127;48.962;8.342;2023-12-07T04:36:11;25.38;;;13.70;;
33824;SDS011;20127;48.962;8.342;2023-12-07T04:37:26;21.17;;;12.13;;
33824;SDS011;20127;48.962;8.342;2023-12-07T04:38:40;27.27;;;12.30;;
33824;SDS011;20127;48.962;8.342;2023-12-07T04:39:54;27.60;;;13.30;;
33824;SDS011;20127;48.962;8.342;2023-12-07T04:41:08;28.25;;;13.57;;
33824;SDS011;20127;48.962;8.342;2023-12-07T04:42:23;22.52;;;13.18;;
33824;SDS011;20127;48.962;8.342;2023-12-07T04:43:37;27.65;;;14.15;;
33824;SDS011;20127;48.962;8.342;2023-12-07T04:44:51;23.23;;;10.93;;
33824;SDS011;20127;48.962;8.342;2023-12-07T04:46:05;25.30;;;12.60;;
33824;SDS011;20127;48.962;8.342;2023-12-07T04:47:20;29.70;;;13.07;;
33824;SDS011;20127;48.962;8.342;2023-12-07T04:48:34;29.58;;;13.88;;
33824;SDS011;20127;48.962;8.342;2023-12-07T04:49:50;25.65;;;12.10;;
33824;SDS011;20127;48.962;8.342;2023-12-07T04:51:04;26.88;;;12.65;;
33824;SDS011;20127;48.962;8.342;2023-12-07T04:52:19;23.77;;;11.55;;
33824;SDS011;20127;48.962;8.342;2023-12-07T04:53:32;22.23;;;13.48;;
33824;SDS011;20127;48.962;8.342;2023-12-07T04:54:47;23.58;;;12.95;;
33824;SDS011;20127;48.962;8.342;2023-12-07T04:56:02;29.83;;;11.77;;
33824;SDS011;20127;48.962;8.342;2023-12-07T04:57:17;22.88;;;12.88;;
33824;SDS011;20127;48.962;8.342;2023-12-07T04:58:31;23.95;;;12.25;;
33824;SDS011;20127;48.962;8.342;2023-12-07T04:59:46;23.83;;;13.43;;
33824;SDS011;20127;48.962;8.342;2023-12-07T05:01:00;27.42;;;13.45;;
33824;SDS011;20127;48.962;8.342;2023-12-07T05:02:15;27.20;;;12.57;;
33824;SDS011;20127;48.962;8.342;2023-12-07T05:03:29;21.42;;;13.63;;
33824;SDS011;20127;48.962;8.342;2023-12-07T05:04:45;30.15;;;15.70;;
33824;SDS011;20127;48.962;8.342;2023-12-07T05:06:00;24.65;;;14.30;;
33824;SDS011;20127;48.962;8.342;2023-12-07T05:07:15;22.83;;;12.60;;
33824;SDS011;20127;48.962;8.342;2023-12-07T05:08:30;25.50;;;12.43;;
33824;SDS011;20127;48.962;8.342;2023-12-07T05:09:44;23.70;;;14.82;;
33824;SDS011;20127;48.962;8.342;2023-12-07T05:10:58;29.55;;;13.45;;
33824;SDS011;20127;48.962;8.342;2023-12-07T05:12:13;24.52;;;14.48;;
33824;SDS011;20127;48.962;8.342;2023-12-07T05:13:27;26.60;;;13.20;;
33824;SDS011;20127;48.962;8.342;2023-12-07T05:14:42;27.83;;;14.25;;
33824;SDS011;20127;48.962;8.342;2023-12-07T05:15:56;31.27;;;13.90;;
33824;SDS011;20127;48.962;8.342;2023-12-07T05:17:11;19.00;;;12.32;;
33824;SDS011;20127;48.962;8.342;2023-12-07T05:18:24;25.83;;;13.80;;
33824;SDS011;20127;48.962;8.342;2023-12-07T05:19:39;31.30;;;14.27;;
33824;SDS011;20127;48.962;8.342;2023-12-07T05:20:53;26.38;;;14.20;;
33824;SDS011;20127;48.962;8.342;2023-12-07T05:22:09;23.58;;;12.95;;
33824;SDS011;20127;48.962;8.342;2023-12-07T05:23:23;30.30;;;14.20;;
33824;SDS011;20127;48.962;8.342;2023-12-07T05:24:37;30.85;;;14.75;;
33824;SDS011;20127;48.962;8.342;2023-12-07T05:25:51;26.58;;;13.98;;
33824;SDS011;20127;48.962;8.342;2023-12-07T05:27:07;29.02;;;14.52;;
33824;SDS011;20127;48.962;8.342;2023-12-07T05:28:21;32.75;;;14.30;;
33824;SDS011;20127;48.962;8.342;2023-12-07T05:29:35;24.85;;;14.13;;
33824;SDS011;20127;48.962;8.342;2023-12-07T05:30:49;31.17;;;15.68;;
33824;SDS011;20127;48.962;8.342;2023-12-07T05:32:04;33.10;;;14.75;;
33824;SDS011;20127;48.962;8.342;2023-12-07T05:33:19;27.85;;;14.07;;
33824;SDS011;20127;48.962;8.342;2023-12-07T05:34:33;27.50;;;13.57;;
33824;SDS011;20127;48.962;8.342;2023-12-07T05:35:48;33.35;;;13.90;;
33824;SDS011;20127;48.962;8.342;2023-12-07T05:37:03;27.40;;;14.32;;
33824;SDS011;20127;48.962;8.342;2023-12-07T05:38:18;25.30;;;14.38;;
33824;SDS011;20127;48.962;8.342;2023-12-07T05:39:33;30.33;;;14.77;;
33824;SDS011;20127;48.962;8.342;2023-12-07T05:40:47;26.73;;;14.43;;
33824;SDS011;20127;48.962;8.342;2023-12-07T05:42:01;32.05;;;12.93;;
33824;SDS011;20127;48.962;8.342;2023-12-07T05:43:17;32.83;;;15.23;;
33824;SDS011;20127;48.962;8.342;2023-12-07T05:44:31;28.63;;;15.63;;
33824;SDS011;20127;48.962;8.342;2023-12-07T05:45:45;25.92;;;14.32;;
33824;SDS011;20127;48.962;8.342;2023-12-07T05:47:00;24.20;;;13.45;;
33824;SDS011;20127;48.962;8.342;2023-12-07T05:48:14;23.13;;;15.32;;
33824;SDS011;20127;48.962;8.342;2023-12-07T05:49:28;25.27;;;13.23;;
33824;SDS011;20127;48.962;8.342;2023-12-07T05:50:42;26.17;;;14.07;;
33824;SDS011;20127;48.962;8.342;2023-12-07T05:51:57;23.90;;;14.30;;
33824;SDS011;20127;48.962;8.342;2023-12-07T05:53:10;26.25;;;15.00;;
33824;SDS011;20127;48.962;8.342;2023-12-07T05:54:27;33.72;;;15.85;;
33824;SDS011;20127;48.962;8.342;2023-12-07T05:55:40;24.83;;;14.05;;
33824;SDS011;20127;48.962;8.342;2023-12-07T05:56:55;33.55;;;16.20;;
33824;SDS011;20127;48.962;8.342;2023-12-07T05:58:09;66.65;;;37.35;;
33824;SDS011;20127;48.962;8.342;2023-12-07T05:59:24;54.35;;;27.27;;
33824;SDS011;20127;48.962;8.342;2023-12-07T06:00:38;33.88;;;19.25;;
33824;SDS011;20127;48.962;8.342;2023-12-07T06:01:53;31.23;;;17.27;;
33824;SDS011;20127;48.962;8.342;2023-12-07T06:03:07;23.92;;;14.20;;
33824;SDS011;20127;48.962;8.342;2023-12-07T06:04:22;33.15;;;16.40;;
33824;SDS011;20127;48.962;8.342;2023-12-07T06:05:37;26.20;;;16.48;;
33824;SDS011;20127;48.962;8.342;2023-12-07T06:06:51;25.20;;;13.38;;
33824;SDS011;20127;48.962;8.342;2023-12-07T06:08:05;28.02;;;15.55;;
33824;SDS011;20127;48.962;8.342;2023-12-07T06:09:20;32.28;;;14.82;;
33824;SDS011;20127;48.962;8.342;2023-12-07T06:10:35;24.63;;;12.93;;
33824;SDS011;20127;48.962;8.342;2023-12-07T06:11:51;30.17;;;14.38;;
33824;SDS011;20127;48.962;8.342;2023-12-07T06:13:05;28.58;;;14.98;;
33824;SDS011;20127;48.962;8.342;2023-12-07T06:14:20;27.40;;;13.47;;
33824;SDS011;20127;48.962;8.342;2023-12-07T06:15:35;26.55;;;13.68;;
33824;SDS011;20127;48.962;8.342;2023-12-07T06:16:50;27.33;;;14.03;;
33824;SDS011;20127;48.962;8.342;2023-12-07T06:18:04;28.57;;;16.27;;
33824;SDS011;20127;48.962;8.342;2023-12-07T06:19:19;30.00;;;15.17;;
33824;SDS011;20127;48.962;8.342;2023-12-07T06:20:34;22.90;;;14.17;;
33824;SDS011;20127;48.962;8.342;2023-12-07T06:21:49;25.07;;;13.43;;
33824;SDS011;20127;48.962;8.342;2023-12-07T06:23:02;27.50;;;14.40;;
33824;SDS011;20127;48.962;8.342;2023-12-07T06:24:17;26.77;;;14.40;;
33824;SDS011;20127;48.962;8.342;2023-12-07T06:25:31;26.07;;;14.33;;
33824;SDS011;20127;48.962;8.342;2023-12-07T06:26:47;25.53;;;13.20;;
33824;SDS011;20127;48.962;8.342;2023-12-07T06:28:01;25.20;;;12.93;;
33824;SDS011;20127;48.962;8.342;2023-12-07T06:29:15;27.73;;;14.43;;
33824;SDS011;20127;48.962;8.342;2023-12-07T06:30:29;28.33;;;14.03;;
33824;SDS011;20127;48.962;8.342;2023-12-07T06:31:44;25.63;;;14.00;;
33824;SDS011;20127;48.962;8.342;2023-12-07T06:32:58;26.47;;;14.20;;
33824;SDS011;20127;48.962;8.342;2023-12-07T06:34:13;29.70;;;15.20;;
33824;SDS011;20127;48.962;8.342;2023-12-07T06:35:27;21.80;;;13.67;;
33824;SDS011;20127;48.962;8.342;2023-12-07T06:36:42;27.77;;;15.47;;
33824;SDS011;20127;48.962;8.342;2023-12-07T06:37:57;26.30;;;13.53;;
33824;SDS011;20127;48.962;8.342;2023-12-07T06:39:11;35.20;;;14.35;;
33824;SDS011;20127;48.962;8.342;2023-12-07T06:40:25;27.90;;;15.20;;
33824;SDS011;20127;48.962;8.342;2023-12-07T06:41:40;27.43;;;14.97;;
33824;SDS011;20127;48.962;8.342;2023-12-07T06:42:55;30.20;;;16.23;;
33824;SDS011;20127;48.962;8.342;2023-12-07T06:44:09;36.00;;;15.17;;
33824;SDS011;20127;48.962;8.342;2023-12-07T06:45:23;26.95;;;14.57;;
33824;SDS011;20127;48.962;8.342;2023-12-07T06:46:38;27.20;;;14.83;;
33824;SDS011;20127;48.962;8.342;2023-12-07T06:47:52;29.20;;;14.20;;
33824;SDS011;20127;48.962;8.342;2023-12-07T06:49:07;27.47;;;13.93;;
33824;SDS011;20127;48.962;8.342;2023-12-07T06:50:20;34.72;;;16.40;;
33824;SDS011;20127;48.962;8.342;2023-12-07T06:51:35;32.43;;;15.60;;
33824;SDS011;20127;48.962;8.342;2023-12-07T06:52:49;27.87;;;14.77;;
33824;SDS011;20127;48.962;8.342;2023-12-07T06:54:04;32.53;;;15.93;;
33824;SDS011;20127;48.962;8.342;2023-12-07T06:55:17;32.22;;;14.65;;
33824;SDS011;20127;48.962;8.342;2023-12-07T06:56:32;31.00;;;14.90;;
33824;SDS011;20127;48.962;8.342;2023-12-07T06:57:46;31.30;;;15.52;;
33824;SDS011;20127;48.962;8.342;2023-12-07T06:59:02;29.37;;;15.50;;
33824;SDS011;20127;48.962;8.342;2023-12-07T07:00:16;29.45;;;14.65;;
33824;SDS011;20127;48.962;8.342;2023-12-07T07:01:33;30.33;;;15.55;;
33824;SDS011;20127;48.962;8.342;2023-12-07T07:02:46;32.95;;;16.02;;
33824;SDS011;20127;48.962;8.342;2023-12-07T07:04:01;30.02;;;16.48;;
33824;SDS011;20127;48.962;8.342;2023-12-07T07:05:15;28.50;;;16.23;;
33824;SDS011;20127;48.962;8.342;2023-12-07T07:06:30;32.90;;;14.90;;
33824;SDS011;20127;48.962;8.342;2023-12-07T07:07:43;26.63;;;14.68;;
33824;SDS011;20127;48.962;8.342;2023-12-07T07:08:58;31.95;;;15.32;;
33824;SDS011;20127;48.962;8.342;2023-12-07T07:10:12;27.20;;;14.53;;
33824;SDS011;20127;48.962;8.342;2023-12-07T07:11:27;28.77;;;13.57;;
33824;SDS011;20127;48.962;8.342;2023-12-07T07:12:42;25.67;;;14.90;;
33824;SDS011;20127;48.962;8.342;2023-12-07T07:13:56;28.23;;;13.73;;
33824;SDS011;20127;48.962;8.342;2023-12-07T07:15:12;33.15;;;15.15;;
33824;SDS011;20127;48.962;8.342;2023-12-07T07:16:26;26.43;;;14.27;;
33824;SDS011;20127;48.962;8.342;2023-12-07T07:17:40;26.93;;;15.00;;
33824;SDS011;20127;48.962;8.342;2023-12-07T07:18:55;30.20;;;14.73;;